Latest Weather Observations for Nullarbor

IDS60801

Issued at 8:05 am CST Thursday 2 October 2014 (issued every 30 minutes, with the page automatically refreshed every 10 minutes)

About weather observations | Map of weather stations | Latest weather observations for SA | Other Formats
Station Details ID: 018106 Name: NULLARBOR Lat: -31.45 Lon: 130.90 Height: 64.0 m
Data from the previous 72 hours. | See also: Recent months at Nullarbor
Date/Time
CST
Temp
°C
App
Temp
°C
Dew
Point
Rel
Hum
%
Delta-T
°C
Wind Press
QNH
hPa
Press
MSL
hPa
Rain
since 9 am
mm
Dir
 
Spd
km/h
Gust
km/h
Spd
kts
Gust
kts
02/08:00am 13.8 9.9 8.8 72 2.5 E 19 28 10 15 1025.3 1025.2 0.0
02/07:30am 11.9 9.1 10.0 88 1.0 E 15 17 8 9 1025.2 1025.1 0.0
02/07:00am 9.5 6.4 9.0 97 0.2 E 15 17 8 9 1024.9 1024.8 0.0
02/06:51am 9.0 5.9 8.7 98 0.1 ESE 15 17 8 9 1024.9 1024.8 0.0
02/06:37am 8.5 5.3 8.4 99 0.0 ESE 15 17 8 9 1024.7 1024.6 0.0
02/06:30am 8.5 5.3 8.4 99 0.0 ESE 15 17 8 9 1024.7 1024.6 0.0
02/06:24am 8.5 5.3 8.4 99 0.0 ESE 15 17 8 9 1024.7 1024.6 0.0
02/06:00am 8.5 5.3 8.4 99 0.0 ESE 15 17 8 9 1024.4 1024.3 0.0
02/05:30am 8.8 6.0 8.7 99 0.0 E 13 15 7 8 1024.4 1024.3 0.0
02/05:00am 9.3 6.3 9.2 99 0.0 E 15 17 8 9 1024.3 1024.2 0.0
02/04:30am 9.2 6.5 8.9 98 0.1 E 13 15 7 8 1024.4 1024.3 0.0
02/04:00am 9.5 6.8 8.9 96 0.3 E 13 15 7 8 1024.5 1024.4 0.0
02/03:30am 10.3 7.4 9.7 96 0.3 E 15 17 8 9 1024.4 1024.3 0.0
02/03:00am 10.4 7.8 9.5 94 0.4 E 13 15 7 8 1024.7 1024.6 0.0
02/02:38am 10.7 7.8 9.6 93 0.6 ESE 15 17 8 9 1024.9 1024.8 0.0
02/02:30am 10.6 7.7 9.5 93 0.5 ESE 15 17 8 9 1025.1 1025.0 0.0
02/02:00am 11.1 8.2 9.7 91 0.7 ESE 15 17 8 9 1025.3 1025.2 0.0
02/01:30am 11.6 8.7 9.5 87 1.1 ESE 15 19 8 10 1025.8 1025.7 0.0
02/01:00am 11.8 8.5 9.5 86 1.2 ESE 17 19 9 10 1025.9 1025.8 0.0
02/12:30am 12.6 9.4 10.0 84 1.3 ESE 17 22 9 12 1026.2 1026.1 0.0
02/12:00am 13.0 9.6 10.5 85 1.3 ESE 19 24 10 13 1026.3 1026.2 0.0
 
Date/Time
CST
Temp
°C
App
Temp
°C
Dew
Point
Rel
Hum
%
Delta-T
°C
Wind Press
QNH
hPa
Press
MSL
hPa
Rain
since 9 am
mm
Dir
 
Spd
km/h
Gust
km/h
Spd
kts
Gust
kts
01/11:30pm 13.3 9.4 10.7 84 1.4 ESE 22 30 12 16 1026.2 1026.1 0.0
01/11:00pm 13.4 9.9 10.9 85 1.3 ESE 20 26 11 14 1026.5 1026.4 0.0
01/10:30pm 13.8 9.5 10.8 82 1.6 ESE 24 32 13 17 1026.6 1026.5 0.0
01/10:00pm 14.1 9.1 10.9 81 1.7 ESE 28 39 15 21 1026.6 1026.5 0.0
01/09:30pm 14.0 9.4 11.0 82 1.6 ESE 26 35 14 19 1026.6 1026.5 0.0
01/09:00pm 14.1 9.4 10.5 79 1.9 SE 26 33 14 18 1026.6 1026.5 0.0
01/08:30pm 14.3 9.2 10.5 78 2.0 SE 28 35 15 19 1026.3 1026.2 0.0
01/08:00pm 14.4 9.2 10.2 76 2.2 SE 28 33 15 18 1026.1 1026.0 0.0
01/07:30pm 14.4 9.6 10.2 76 2.2 SE 26 35 14 19 1026.0 1025.9 0.0
01/07:00pm 14.7 9.0 9.9 73 2.5 SE 30 37 16 20 1025.8 1025.7 0.0
01/06:30pm 15.3 8.7 9.9 70 2.8 SE 35 43 19 23 1025.5 1025.4 0.0
01/06:00pm 16.0 9.3 9.7 66 3.3 SE 35 48 19 26 1025.4 1025.3 0.0
01/05:30pm 16.7 10.0 9.6 63 3.7 SE 35 46 19 25 1025.4 1025.3 0.0
01/05:00pm 17.4 10.7 9.8 61 4.0 SE 35 44 19 24 1025.3 1025.2 0.0
01/04:30pm 17.9 11.0 9.0 56 4.6 SE 35 44 19 24 1025.4 1025.3 0.0
01/04:00pm 18.8 12.4 8.7 52 5.3 SE 32 43 17 23 1025.7 1025.6 0.0
01/03:30pm 19.0 12.8 9.2 53 5.1 SE 32 43 17 23 1025.8 1025.7 0.0
01/03:00pm 18.8 12.4 8.5 51 5.3 SE 32 43 17 23 1026.0 1025.9 0.0
01/02:30pm 19.0 13.4 8.9 52 5.3 SSE 28 39 15 21 1026.4 1026.3 0.0
01/02:00pm 18.8 13.2 8.7 52 5.3 SE 28 39 15 21 1026.8 1026.7 0.0
01/01:30pm 19.5 14.3 8.8 50 5.6 SE 26 35 14 19 1027.3 1027.2 0.0
01/01:00pm 19.0 14.4 9.5 54 5.0 SE 24 35 13 19 1027.6 1027.5 0.0
01/12:30pm 19.9 15.9 9.2 50 5.6 SE 20 30 11 16 1028.1 1028.0 0.0
01/12:00pm 19.3 14.4 8.3 49 5.7 ESE 24 33 13 18 1028.6 1028.5 0.0
01/11:30am 19.3 14.4 10.0 55 5.0 SE 26 37 14 20 1028.9 1028.8 0.0
01/11:00am 18.3 13.0 8.6 53 5.0 ESE 26 37 14 20 1029.1 1029.0 0.0
01/10:30am 18.5 14.0 8.7 53 5.1 ESE 22 32 12 17 1029.4 1029.3 0.0
01/10:00am 17.8 13.5 9.2 57 4.5 ESE 22 32 12 17 1029.6 1029.5 0.0
01/09:30am 16.6 10.8 8.1 57 4.3 ESE 28 43 15 23 1029.6 1029.5 0.0
01/09:00am 17.4 12.2 8.8 57 4.4 ESE 26 35 14 19 1029.5 1029.5 0.0
01/08:30am 16.4 11.9 8.6 60 4.0 SE 22 32 12 17 1029.2 1029.2 0.0
01/08:00am 15.1 11.4 9.5 69 2.9 SSE 19 24 10 13 1028.9 1028.8 0.0
01/07:30am 12.9 10.7 9.4 79 1.8 SE 11 13 6 7 1028.6 1028.5 0.0
01/07:00am 10.0 6.7 8.1 88 0.9 SE 15 17 8 9 1028.3 1028.2 0.0
01/06:30am 10.0 6.7 7.9 87 1.0 SE 15 17 8 9 1028.0 1027.9 0.0
01/06:00am 9.5 6.9 7.8 89 0.8 SE 11 13 6 7 1027.8 1027.7 0.0
01/05:30am 9.0 5.9 7.1 88 0.9 SSE 13 15 7 8 1027.3 1027.2 0.0
01/05:00am 9.0 5.4 6.8 86 1.0 SE 15 15 8 8 1026.7 1026.6 0.0
01/04:30am 10.1 7.4 7.3 83 1.3 SSE 11 15 6 8 1026.6 1026.5 0.0
01/04:00am 10.7 7.3 7.8 82 1.4 SSE 15 17 8 9 1026.4 1026.3 0.0
01/03:30am 10.4 7.4 7.5 82 1.4 SSE 13 15 7 8 1026.3 1026.2 0.0
01/03:00am 10.7 7.7 7.9 83 1.4 SE 13 15 7 8 1026.4 1026.3 0.0
01/02:30am 10.8 7.7 7.3 79 1.7 SSE 13 15 7 8 1026.5 1026.4 0.0
01/02:00am 12.3 9.5 8.4 77 1.9 SSE 13 19 7 10 1026.6 1026.5 0.0
01/01:30am 11.2 8.3 8.1 81 1.5 SSE 13 15 7 8 1026.7 1026.6 0.0
01/01:00am 11.0 8.5 8.2 83 1.4 SSE 11 13 6 7 1026.9 1026.8 0.0
01/12:30am 11.5 8.7 8.5 82 1.5 SSE 13 13 7 7 1026.9 1026.8 0.0
01/12:00am 11.2 8.0 8.6 84 1.3 SSE 15 17 8 9 1026.9 1026.8 0.0
 
Date/Time
CST
Temp
°C
App
Temp
°C
Dew
Point
Rel
Hum
%
Delta-T
°C
Wind Press
QNH
hPa
Press
MSL
hPa
Rain
since 9 am
mm
Dir
 
Spd
km/h
Gust
km/h
Spd
kts
Gust
kts
30/11:30pm 10.9 8.1 8.5 85 1.2 SSE 13 17 7 9 1026.8 1026.7 0.0
30/11:00pm 10.9 8.1 8.7 86 1.1 SSE 13 15 7 8 1026.7 1026.6 0.0
30/10:30pm 11.2 8.5 8.9 86 1.1 SSE 13 15 7 8 1026.6 1026.5 0.0
30/10:00pm 11.4 8.7 8.8 84 1.3 S 13 15 7 8 1026.6 1026.5 0.0
30/09:30pm 12.1 9.8 9.1 82 1.5 SSE 11 13 6 7 1026.5 1026.4 0.0
30/09:00pm 13.2 10.7 9.6 79 1.8 S 13 15 7 8 1026.3 1026.2 0.0
30/08:30pm 15.0 12.4 10.8 76 2.2 SSE 15 19 8 10 1025.9 1025.8 0.0
30/08:00pm 15.2 13.2 11.4 78 2.0 S 13 17 7 9 1025.6 1025.5 0.0
30/07:30pm 14.9 11.9 10.7 76 2.2 S 17 22 9 12 1025.2 1025.1 0.0
30/07:00pm 15.5 11.4 10.1 70 2.8 S 22 28 12 15 1024.7 1024.6 0.0
30/06:30pm 16.3 11.1 10.4 68 3.1 S 28 33 15 18 1024.4 1024.3 0.0
30/06:00pm 17.1 12.3 11.6 70 3.0 S 28 37 15 20 1024.1 1024.0 0.0
30/05:30pm 17.8 12.7 10.7 63 3.8 S 28 39 15 21 1023.7 1023.6 0.0
30/05:00pm 18.3 12.4 10.4 60 4.2 S 32 39 17 21 1023.1 1023.0 0.0
30/04:30pm 19.5 14.0 10.5 56 4.9 SSW 30 35 16 19 1022.7 1022.7 0.0
30/04:00pm 20.5 15.8 10.6 53 5.4 SSW 26 39 14 21 1022.2 1022.2 0.0
30/03:30pm 19.9 14.5 9.5 51 5.5 SSW 28 39 15 21 1022.0 1022.0 0.0
30/03:00pm 20.6 15.3 11.2 55 5.2 SSW 30 39 16 21 1021.9 1021.9 0.0
30/02:30pm 20.0 14.5 10.4 54 5.2 SSW 30 43 16 23 1021.9 1021.9 0.0
30/02:00pm 20.8 15.4 10.9 53 5.4 SSW 30 41 16 22 1022.0 1022.0 0.0
30/01:30pm 20.7 15.6 10.5 52 5.5 SSW 28 39 15 21 1022.0 1022.0 0.0
30/01:03pm 20.8 15.0 10.9 53 5.4 SSW 32 50 17 27 1022.0 1022.0 0.0
30/01:00pm 21.2 15.7 10.7 51 5.8 SSW 30 41 16 22 1022.0 1022.0 0.0
30/12:30pm 20.8 16.0 10.3 51 5.7 SSW 26 37 14 20 1022.1 1022.1 0.0
30/12:00pm 20.6 15.3 9.8 50 5.8 SW 28 41 15 22 1022.1 1022.1 0.0
30/11:30am 20.5 15.4 10.6 53 5.4 SW 28 41 15 22 1022.2 1022.2 0.0
30/11:00am 20.4 14.7 11.1 55 5.1 SW 32 39 17 21 1022.2 1022.2 0.0
30/10:30am 20.0 14.8 10.1 53 5.3 SW 28 35 15 19 1022.1 1022.1 0.0
30/10:00am 19.6 14.3 10.0 54 5.2 SSW 28 39 15 21 1022.0 1022.0 0.0
30/09:30am 20.1 14.3 9.4 50 5.7 SSW 30 39 16 21 1021.7 1021.7 0.0
30/09:00am 19.8 14.2 8.8 49 5.8 SSW 28 35 15 19 1021.1 1021.1 0.0
30/08:30am 18.7 14.9 9.2 54 5.0 SW 19 22 10 12 1020.6 1020.6 0.0
30/08:00am 16.4 15.0 12.2 76 2.3 SW 11 15 6 8 1020.2 1020.2 0.0
30/07:30am 13.2 12.6 12.3 94 0.5 WSW 7 9 4 5 1020.0 1020.0 0.0
30/07:00am 11.5 9.8 11.3 99 0.1 SW 11 11 6 6 1019.5 1019.5 0.0
30/06:30am 11.7 10.1 11.5 99 0.1 SSW 11 13 6 7 1019.0 1019.0 0.0
30/06:00am 11.0 9.6 10.8 99 0.1 SSW 9 11 5 6 1018.5 1018.5 0.0
30/05:30am 11.2 8.7 11.0 99 0.1 S 15 15 8 8 1018.0 1018.0 0.0
30/05:00am 10.8 8.2 10.6 99 0.1 SSW 15 15 8 8 1017.6 1017.6 0.0
30/04:30am 10.6 7.9 10.4 99 0.1 SSW 15 17 8 9 1017.6 1017.6 0.0
30/04:00am 11.3 8.8 11.1 99 0.1 SSW 15 19 8 10 1017.2 1017.2 0.0
30/03:58am 11.4 8.6 11.2 99 0.1 SSW 17 20 9 11 1017.2 1017.2 0.0
30/03:30am 10.5 7.0 10.3 99 0.1 SW 19 20 10 11 1017.0 1017.0 0.0
30/03:00am 11.9 9.6 11.6 98 0.2 WSW 15 17 8 9 1016.3 1016.3 0.0
30/02:52am 12.0 10.4 11.4 96 0.3 WSW 11 15 6 8 1016.3 1016.3 0.0
30/02:30am 11.2 9.1 9.6 90 0.8 SW 11 13 6 7 1016.0 1015.9 0.0
30/02:00am 11.5 9.1 8.7 83 1.4 SW 11 13 6 7 1016.2 1016.2 0.0
30/01:30am 11.5 8.5 7.6 77 1.9 SW 13 19 7 10 1016.1 1016.1 0.0
30/01:00am 11.5 10.0 8.4 81 1.5 WSW 6 11 3 6 1015.8 1015.7 0.0
30/12:30am 12.4 11.1 9.1 80 1.7 WSW 6 7 3 4 1015.5 1015.4 0.0
30/12:00am 13.2 13.0 8.9 75 2.2 CALM 0 0 0 0 1015.2 1015.1 0.0
 
Date/Time
CST
Temp
°C
App
Temp
°C
Dew
Point
Rel
Hum
%
Delta-T
°C
Wind Press
QNH
hPa
Press
MSL
hPa
Rain
since 9 am
mm
Dir
 
Spd
km/h
Gust
km/h
Spd
kts
Gust
kts
29/11:30pm 12.8 11.6 7.9 72 2.4 E 4 7 2 4 1015.1 1015.0 0.0
29/11:00pm 13.9 11.9 8.7 71 2.6 E 9 11 5 6 1015.1 1015.0 0.0
29/10:30pm 12.7 9.9 8.6 76 2.0 E 13 15 7 8 1015.1 1015.0 0.0
29/10:00pm 13.3 10.7 9.4 77 2.0 E 13 13 7 7 1015.1 1015.0 0.0
29/09:30pm 13.9 11.7 9.5 75 2.3 E 11 13 6 7 1015.1 1015.0 0.0
29/09:00pm 14.6 11.8 10.0 74 2.4 E 15 15 8 8 1014.8 1014.7 0.0
29/08:30pm 15.6 13.3 10.6 72 2.7 E 13 15 7 8 1014.6 1014.5 0.0
29/08:00pm 16.1 13.5 10.8 71 2.8 E 15 17 8 9 1014.4 1014.3 0.0
29/07:30pm 16.8 14.1 10.4 66 3.4 E 15 17 8 9 1014.2 1014.1 0.0
29/07:00pm 18.4 15.7 10.3 59 4.3 ESE 15 20 8 11 1013.8 1013.7 0.0
29/06:30pm 21.3 17.0 6.8 39 7.4 SE 19 26 10 14 1013.5 1013.4 0.0
29/06:00pm 23.6 18.5 4.0 28 9.6 SE 20 28 11 15 1013.4 1013.3 0.0
29/05:30pm 24.4 18.7 3.1 25 10.4 SSE 22 28 12 15 1013.2 1013.1 0.0
29/05:00pm 24.7 18.6 2.8 24 10.6 SSE 24 33 13 18 1013.1 1013.0 0.0
29/04:30pm 25.9 19.1 3.2 23 11.2 SSE 28 35 15 19 1012.8 1012.7 0.0
29/04:00pm 28.1 22.1 -2.9 13 13.9 W 19 30 10 16 1012.7 1012.6 0.0
29/03:30pm 28.2 23.4 -2.8 13 13.9 NNW 13 24 7 13 1012.9 1012.8 0.0
29/03:00pm 27.6 22.3 -3.3 13 13.7 WNW 15 24 8 13 1013.2 1013.1 0.0
29/02:30pm 27.5 22.7 -2.3 14 13.4 W 13 28 7 15 1013.6 1013.5 0.0
29/02:00pm 27.1 21.4 -3.7 13 13.5 WNW 17 28 9 15 1014.2 1014.1 0.0
29/01:30pm 27.2 22.0 0.1 17 12.7 NNW 17 28 9 15 1014.5 1014.4 0.0
29/01:00pm 26.4 22.2 -0.6 17 12.5 NNW 11 19 6 10 1015.1 1015.0 0.0
29/12:30pm 25.7 20.4 1.8 21 11.4 NW 19 24 10 13 1015.6 1015.5 0.0
29/12:00pm 24.7 19.1 3.4 25 10.4 N 22 33 12 18 1016.2 1016.2 0.0
29/11:30am 23.7 17.8 4.1 28 9.7 N 24 32 13 17 1016.7 1016.7 0.0
29/11:00am 22.4 16.8 5.4 33 8.5 N 24 33 13 18 1017.1 1017.1 0.0
29/10:30am 21.1 15.3 6.2 38 7.5 NNE 26 39 14 21 1017.4 1017.4 0.0
29/10:00am 19.7 13.8 7.4 45 6.3 NNE 28 37 15 20 1017.6 1017.6 0.0
29/09:30am 18.6 13.1 9.1 54 5.0 NNE 28 35 15 19 1017.7 1017.7 0.0
29/09:00am 16.5 10.8 9.9 65 3.5 NNE 30 35 16 19 1017.8 1017.8 0.0
29/08:30am 15.0 10.0 10.8 76 2.2 NNE 28 37 15 20 1017.8 1017.8 0.0

Other Formats:

Comma delimited format used in spreadsheet applications
http://www.bom.gov.au/fwo/IDS60801/IDS60801.94651.axf

JavaScript Object Notation format (JSON) in row-major order
http://www.bom.gov.au/fwo/IDS60801/IDS60801.94651.json